createdAt,value
2024-03-08T00:01:23.909Z,1.50
2024-03-08T00:04:46.865Z,1.30
2024-03-08T00:08:08.469Z,1.20
2024-03-08T00:11:30.191Z,1.10
2024-03-08T00:14:51.867Z,1.00
2024-03-08T00:18:13.615Z,0.90
2024-03-08T00:21:36.702Z,0.90
2024-03-08T00:24:58.869Z,0.80
2024-03-08T00:28:20.469Z,0.80
2024-03-08T00:31:42.076Z,0.80
2024-03-08T00:35:03.948Z,0.80
2024-03-08T00:38:26.937Z,0.80
2024-03-08T00:41:48.610Z,0.80
2024-03-08T00:45:10.939Z,0.70
2024-03-08T00:48:32.633Z,0.60
2024-03-08T00:51:54.309Z,0.60
2024-03-08T00:55:17.325Z,0.60
2024-03-08T00:58:38.929Z,0.70
2024-03-08T01:02:00.612Z,0.80
2024-03-08T01:05:22.220Z,0.70
2024-03-08T01:08:43.865Z,0.70
2024-03-08T01:12:07.541Z,0.80
2024-03-08T01:15:29.165Z,0.70
2024-03-08T01:18:50.888Z,0.70
2024-03-08T01:22:12.599Z,0.60
2024-03-08T01:25:34.220Z,0.60
2024-03-08T01:28:57.190Z,0.60
2024-03-08T01:32:18.792Z,0.60
2024-03-08T01:35:40.425Z,0.50
2024-03-08T01:39:02.099Z,0.40
2024-03-08T01:42:23.782Z,0.40
2024-03-08T01:45:46.845Z,0.50
2024-03-08T01:49:08.442Z,0.50
2024-03-08T01:52:30.601Z,0.50
2024-03-08T01:55:54.707Z,0.60
2024-03-08T01:59:16.805Z,0.50
2024-03-08T02:02:41.182Z,0.40
2024-03-08T02:06:02.907Z,0.40
2024-03-08T02:09:24.682Z,0.30
2024-03-08T02:12:47.551Z,0.20
2024-03-08T02:16:09.524Z,0.10
2024-03-08T02:19:32.869Z,0.10
2024-03-08T02:22:55.858Z,0.00
2024-03-08T02:26:17.450Z,-0.10
2024-03-08T02:29:39.405Z,-0.20
2024-03-08T02:33:01.251Z,-0.20
2024-03-08T02:36:23.062Z,-0.20
2024-03-08T02:39:46.100Z,-0.30
2024-03-08T02:43:07.713Z,-0.30
2024-03-08T02:46:29.328Z,-0.30
2024-03-08T02:49:50.962Z,-0.40
2024-03-08T02:53:12.766Z,-0.40
2024-03-08T02:56:35.766Z,-0.40
2024-03-08T02:59:57.438Z,-0.50
2024-03-08T03:03:19.156Z,-0.50
2024-03-08T03:06:40.810Z,-0.50
2024-03-08T03:10:03.089Z,-0.50
2024-03-08T03:13:26.423Z,-0.60
2024-03-08T03:16:48.048Z,-0.70
2024-03-08T03:20:09.961Z,-0.70
2024-03-08T03:23:31.586Z,-0.70
2024-03-08T03:26:53.300Z,-0.70
2024-03-08T03:30:16.559Z,-0.70
2024-03-08T03:33:38.660Z,-0.60
2024-03-08T03:37:00.409Z,-0.60
2024-03-08T03:40:22.057Z,-0.50
2024-03-08T03:43:43.683Z,-0.40
2024-03-08T03:47:06.693Z,-0.40
2024-03-08T03:50:28.405Z,-0.50
2024-03-08T03:53:50.114Z,-0.60
2024-03-08T03:57:11.849Z,-0.70
2024-03-08T04:00:33.484Z,-0.70
2024-03-08T04:03:56.451Z,-0.70
2024-03-08T04:07:18.064Z,-0.80
2024-03-08T04:10:39.689Z,-0.80
2024-03-08T04:14:01.328Z,-0.80
2024-03-08T04:17:23.007Z,-0.80
2024-03-08T04:20:46.033Z,-0.70
2024-03-08T04:24:07.749Z,-0.90
2024-03-08T04:27:29.479Z,-0.90
2024-03-08T04:30:51.111Z,-1.00
2024-03-08T04:34:12.737Z,-1.10
2024-03-08T04:37:35.717Z,-1.20
2024-03-08T04:40:57.629Z,-1.30
2024-03-08T04:44:19.256Z,-1.30
2024-03-08T04:47:40.999Z,-1.40
2024-03-08T04:51:03.241Z,-1.50
2024-03-08T04:54:26.245Z,-1.50
2024-03-08T04:57:47.870Z,-1.50
2024-03-08T05:01:09.508Z,-1.50
2024-03-08T05:04:31.177Z,-1.50
2024-03-08T05:07:52.811Z,-1.50
2024-03-08T05:11:15.900Z,-1.50
2024-03-08T05:14:37.642Z,-1.40
2024-03-08T05:18:00.134Z,-1.40
2024-03-08T05:21:21.912Z,-1.40
2024-03-08T05:24:43.522Z,-1.50
2024-03-08T05:28:06.838Z,-1.50
2024-03-08T05:31:28.464Z,-1.60
2024-03-08T05:34:50.225Z,-1.70
2024-03-08T05:38:11.867Z,-1.70
2024-03-08T05:41:33.575Z,-1.70
2024-03-08T05:44:56.678Z,-1.70
2024-03-08T05:48:18.438Z,-1.60
2024-03-08T05:51:40.619Z,-1.60
2024-03-08T05:55:02.262Z,-1.60
2024-03-08T05:58:23.904Z,-1.60
2024-03-08T06:01:46.891Z,-1.60
2024-03-08T06:05:09.469Z,-1.60
2024-03-08T06:08:31.265Z,-1.50
2024-03-08T06:11:52.987Z,-1.40
2024-03-08T06:15:14.679Z,-1.30
2024-03-08T06:18:38.048Z,-1.20
2024-03-08T06:21:59.760Z,-1.00
2024-03-08T06:25:21.386Z,-0.90
2024-03-08T06:28:43.017Z,-0.70
2024-03-08T06:32:04.997Z,-0.50
2024-03-08T06:35:27.999Z,-0.10
2024-03-08T06:38:49.696Z,0.20
2024-03-08T06:42:11.353Z,0.40
2024-03-08T06:45:33.069Z,0.60
2024-03-08T06:48:54.827Z,0.80
2024-03-08T06:52:17.818Z,1.00
2024-03-08T06:55:39.458Z,1.20
2024-03-08T06:59:01.158Z,1.40
2024-03-08T07:02:22.790Z,1.80
2024-03-08T07:05:44.620Z,2.10
2024-03-08T07:09:07.654Z,2.10
2024-03-08T07:12:29.400Z,2.20
2024-03-08T07:15:51.046Z,2.50
2024-03-08T07:19:12.686Z,2.80
2024-03-08T07:22:34.305Z,3.00
2024-03-08T07:25:57.470Z,3.10
2024-03-08T07:29:19.143Z,3.30
2024-03-08T07:32:40.856Z,3.50
2024-03-08T07:36:02.642Z,3.60
2024-03-08T07:39:24.347Z,3.60
2024-03-08T07:42:47.317Z,3.90
2024-03-08T07:46:08.948Z,4.00
2024-03-08T07:49:30.603Z,4.20
2024-03-08T07:52:52.249Z,4.30
2024-03-08T07:56:13.883Z,4.40
2024-03-08T07:59:36.859Z,4.40
2024-03-08T08:02:58.631Z,4.50
2024-03-08T08:06:20.250Z,4.50
2024-03-08T08:09:42.037Z,4.40
2024-03-08T08:13:05.440Z,4.50
2024-03-08T08:16:28.648Z,4.50
2024-03-08T08:19:50.342Z,4.70
2024-03-08T08:23:12.030Z,4.70
2024-03-08T08:26:36.689Z,4.80
2024-03-08T08:29:59.631Z,4.80
2024-03-08T08:33:22.610Z,4.80
2024-03-08T08:36:44.209Z,4.70
2024-03-08T08:40:06.425Z,4.80
2024-03-08T08:43:28.210Z,4.80
2024-03-08T08:46:51.553Z,5.10
2024-03-08T08:50:16.361Z,5.20
2024-03-08T08:53:40.418Z,5.30
2024-03-08T08:57:02.025Z,5.20
2024-03-08T09:00:23.647Z,5.10
2024-03-08T09:03:45.271Z,4.90
2024-03-08T09:07:08.220Z,5.00
2024-03-08T09:10:31.702Z,5.10
2024-03-08T09:13:53.684Z,5.10
2024-03-08T09:17:15.338Z,5.20
2024-03-08T09:20:36.962Z,5.30
2024-03-08T09:23:59.924Z,5.20
2024-03-08T09:27:21.557Z,5.30
2024-03-08T09:30:46.357Z,5.50
2024-03-08T09:34:13.462Z,5.60
2024-03-08T09:37:39.079Z,5.70
2024-03-08T09:41:02.173Z,5.80
2024-03-08T09:44:25.764Z,6.00
2024-03-08T09:47:48.753Z,6.10
2024-03-08T09:51:10.493Z,6.30
2024-03-08T09:54:32.114Z,6.40
2024-03-08T09:57:55.467Z,6.60
2024-03-08T10:01:17.161Z,6.90
2024-03-08T10:04:40.141Z,6.90
2024-03-08T10:08:01.841Z,7.20
2024-03-08T10:11:23.735Z,7.20
2024-03-08T10:14:46.806Z,7.20
2024-03-08T10:18:08.504Z,7.30
2024-03-08T10:21:30.186Z,7.60
2024-03-08T10:24:52.094Z,7.60
2024-03-08T10:28:13.731Z,7.70
2024-03-08T10:31:36.855Z,7.50
2024-03-08T10:34:58.568Z,7.60
2024-03-08T10:38:21.838Z,7.70
2024-03-08T10:41:44.749Z,7.90
2024-03-08T10:45:06.913Z,8.10
2024-03-08T10:48:31.190Z,8.70
2024-03-08T10:51:53.917Z,9.60
2024-03-08T10:55:16.792Z,9.70
2024-03-08T10:58:38.884Z,9.30
2024-03-08T11:02:00.649Z,8.80
2024-03-08T11:05:36.243Z,8.30
2024-03-08T11:08:57.916Z,8.20
2024-03-08T11:12:19.987Z,8.30
2024-03-08T11:15:43.055Z,8.30
2024-03-08T11:19:07.018Z,8.30
2024-03-08T11:22:30.812Z,8.50
2024-03-08T11:25:52.469Z,8.50
2024-03-08T11:29:32.801Z,8.50
2024-03-08T11:32:54.485Z,8.00
2024-03-08T11:36:21.314Z,7.80
2024-03-08T11:39:48.530Z,7.40
2024-03-08T11:43:10.165Z,7.40
2024-03-08T11:46:31.920Z,7.20
2024-03-08T11:49:53.622Z,7.10
2024-03-08T11:53:15.322Z,7.70
2024-03-08T11:56:38.451Z,7.70
2024-03-08T12:00:00.481Z,7.80
2024-03-08T12:03:22.118Z,8.20
2024-03-08T12:06:43.748Z,8.00
2024-03-08T12:10:18.125Z,7.80
2024-03-08T12:13:42.923Z,7.50
2024-03-08T12:17:04.979Z,7.60
2024-03-08T12:20:27.224Z,7.40
2024-03-08T12:23:48.940Z,7.40
2024-03-08T12:27:19.668Z,7.80
2024-03-08T12:30:47.323Z,7.90
2024-03-08T12:34:08.945Z,7.90
2024-03-08T12:37:31.168Z,7.80
2024-03-08T12:40:56.062Z,7.40
2024-03-08T12:44:17.734Z,7.50
2024-03-08T12:47:40.718Z,7.90
2024-03-08T12:51:02.430Z,7.80
2024-03-08T12:54:24.068Z,7.90
2024-03-08T12:57:45.791Z,7.90
2024-03-08T13:01:07.732Z,7.90
2024-03-08T13:04:30.870Z,7.90
2024-03-08T13:07:52.602Z,8.00
2024-03-08T13:11:14.469Z,8.20
2024-03-08T13:14:36.105Z,8.30
2024-03-08T13:17:57.855Z,8.30
2024-03-08T13:21:20.891Z,8.20
2024-03-08T13:24:42.566Z,8.30
2024-03-08T13:28:04.398Z,8.20
2024-03-08T13:31:26.092Z,8.20
2024-03-08T13:34:47.920Z,8.20
2024-03-08T13:38:10.987Z,8.30
2024-03-08T13:41:34.053Z,8.20
2024-03-08T13:44:55.847Z,8.20
2024-03-08T13:48:17.535Z,8.20
2024-03-08T13:51:39.218Z,8.40
2024-03-08T13:55:02.179Z,8.40
2024-03-08T13:58:23.858Z,8.60
2024-03-08T14:01:45.552Z,8.70
2024-03-08T14:05:07.614Z,8.70
2024-03-08T14:08:29.412Z,8.60
2024-03-08T14:11:53.967Z,8.60
2024-03-08T14:15:15.930Z,8.50
2024-03-08T14:18:37.762Z,8.60
2024-03-08T14:21:59.551Z,8.70
2024-03-08T14:25:21.388Z,8.70
2024-03-08T14:28:44.507Z,8.80
2024-03-08T14:32:06.389Z,8.90
2024-03-08T14:35:28.218Z,8.90
2024-03-08T14:38:49.894Z,8.80
2024-03-08T14:42:12.077Z,8.80
2024-03-08T14:45:35.086Z,8.90
2024-03-08T14:48:56.738Z,9.00
2024-03-08T14:52:18.384Z,9.10
2024-03-08T14:55:40.046Z,9.10
2024-03-08T14:59:01.717Z,9.10
2024-03-08T15:02:24.740Z,9.10
2024-03-08T15:05:46.409Z,9.10
2024-03-08T15:09:08.016Z,9.10
2024-03-08T15:12:29.672Z,9.10
2024-03-08T15:15:51.564Z,9.10
2024-03-08T15:19:14.620Z,9.10
2024-03-08T15:22:36.288Z,9.10
2024-03-08T15:25:58.189Z,9.10
2024-03-08T15:29:19.980Z,9.20
2024-03-08T15:32:45.211Z,9.20
2024-03-08T15:36:08.354Z,9.20
2024-03-08T15:39:29.985Z,9.20
2024-03-08T15:42:55.765Z,9.30
2024-03-08T15:46:17.459Z,9.30
2024-03-08T15:49:39.115Z,9.30
2024-03-08T15:53:02.116Z,9.30
2024-03-08T15:56:24.295Z,9.30
2024-03-08T15:59:45.911Z,9.30
2024-03-08T16:03:07.637Z,9.30
2024-03-08T16:06:29.303Z,9.20
2024-03-08T16:09:52.393Z,9.20
2024-03-08T16:13:14.052Z,9.10
2024-03-08T16:16:35.677Z,9.10
2024-03-08T16:19:57.525Z,9.00
2024-03-08T16:23:19.275Z,9.00
2024-03-08T16:26:42.306Z,8.80
2024-03-08T16:30:04.173Z,8.80
2024-03-08T16:33:25.961Z,8.80
2024-03-08T16:36:47.759Z,8.70
2024-03-08T16:40:10.062Z,8.50
2024-03-08T16:43:33.157Z,8.30
2024-03-08T16:46:54.880Z,8.10
2024-03-08T16:50:17.155Z,7.90
2024-03-08T16:53:38.816Z,7.80
2024-03-08T16:57:00.473Z,7.60
2024-03-08T17:00:24.196Z,7.40
2024-03-08T17:03:52.646Z,7.30
2024-03-08T17:07:21.293Z,7.20
2024-03-08T17:10:43.370Z,7.00
2024-03-08T17:14:05.066Z,6.80
2024-03-08T17:17:28.054Z,6.70
2024-03-08T17:20:49.721Z,6.50
2024-03-08T17:24:11.547Z,6.30
2024-03-08T17:27:33.186Z,6.20
2024-03-08T17:30:54.826Z,6.00
2024-03-08T17:34:17.826Z,6.00
2024-03-08T17:37:39.500Z,5.80
2024-03-08T17:41:01.236Z,5.80
2024-03-08T17:44:24.656Z,5.70
2024-03-08T17:47:47.979Z,5.70
2024-03-08T17:51:11.080Z,5.80
2024-03-08T17:54:32.720Z,5.80
2024-03-08T17:57:54.341Z,5.80
2024-03-08T18:01:16.040Z,5.50
2024-03-08T18:04:37.742Z,5.40
2024-03-08T18:08:05.788Z,5.30
2024-03-08T18:11:29.067Z,5.20
2024-03-08T18:14:50.866Z,5.20
2024-03-08T18:18:13.218Z,5.10
2024-03-08T18:21:35.243Z,5.10
2024-03-08T18:24:58.263Z,5.10
2024-03-08T18:28:20.594Z,5.10
2024-03-08T18:31:42.378Z,5.10
2024-03-08T18:35:04.674Z,5.10
2024-03-08T18:38:26.310Z,5.00
2024-03-08T18:41:50.454Z,5.10
2024-03-08T18:45:13.285Z,5.10
2024-03-08T18:48:34.912Z,5.20
2024-03-08T18:51:56.636Z,5.30
2024-03-08T18:55:18.920Z,5.20
2024-03-08T18:58:46.373Z,5.20
2024-03-08T19:02:09.099Z,5.10
2024-03-08T19:05:30.822Z,4.90
2024-03-08T19:08:52.435Z,4.60
2024-03-08T19:12:14.152Z,4.40
2024-03-08T19:15:37.515Z,4.10
2024-03-08T19:18:59.153Z,4.10
2024-03-08T19:22:20.899Z,4.00
2024-03-08T19:25:43.309Z,4.00
2024-03-08T19:29:05.587Z,3.90
2024-03-08T19:32:28.616Z,3.80
2024-03-08T19:35:50.242Z,3.80
2024-03-08T19:39:11.934Z,3.70
2024-03-08T19:42:33.549Z,3.60
2024-03-08T19:45:55.778Z,3.60
2024-03-08T19:49:21.860Z,3.40
2024-03-08T19:52:45.217Z,3.30
2024-03-08T19:56:07.691Z,3.10
2024-03-08T19:59:29.373Z,3.20
2024-03-08T20:02:51.002Z,3.30
2024-03-08T20:06:14.014Z,3.30
2024-03-08T20:09:35.656Z,3.30
2024-03-08T20:12:57.330Z,3.20
2024-03-08T20:16:18.957Z,3.10
2024-03-08T20:19:40.908Z,3.00
2024-03-08T20:23:04.276Z,2.90
2024-03-08T20:26:26.080Z,2.80
2024-03-08T20:29:47.739Z,2.80
2024-03-08T20:33:09.685Z,2.80
2024-03-08T20:36:31.331Z,2.70
2024-03-08T20:39:54.313Z,2.60
2024-03-08T20:43:16.857Z,2.60
2024-03-08T20:46:38.804Z,2.50
2024-03-08T20:50:00.513Z,2.40
2024-03-08T20:53:22.238Z,2.40
2024-03-08T20:56:45.255Z,2.30
2024-03-08T21:00:07.579Z,2.20
2024-03-08T21:03:29.484Z,2.20
2024-03-08T21:06:51.115Z,2.10
2024-03-08T21:10:12.833Z,2.00
2024-03-08T21:13:36.123Z,2.10
2024-03-08T21:16:57.818Z,2.00
2024-03-08T21:20:19.493Z,2.00
2024-03-08T21:23:41.222Z,1.90
2024-03-08T21:27:02.876Z,1.90
2024-03-08T21:30:27.689Z,1.90
2024-03-08T21:33:49.499Z,1.80
2024-03-08T21:37:11.118Z,1.80
2024-03-08T21:40:33.086Z,1.80
2024-03-08T21:43:54.888Z,1.80
2024-03-08T21:47:17.867Z,1.80
2024-03-08T21:50:39.553Z,1.80
2024-03-08T21:54:01.559Z,1.80
2024-03-08T21:57:24.179Z,1.90
2024-03-08T22:00:46.206Z,2.00
2024-03-08T22:04:09.583Z,2.00
2024-03-08T22:07:31.230Z,1.90
2024-03-08T22:10:53.062Z,2.00
2024-03-08T22:14:14.741Z,2.00
2024-03-08T22:17:36.597Z,2.00
2024-03-08T22:21:00.247Z,2.00
2024-03-08T22:24:21.905Z,2.00
2024-03-08T22:27:43.608Z,1.90
2024-03-08T22:31:05.245Z,1.80
2024-03-08T22:34:26.880Z,1.70
2024-03-08T22:37:50.344Z,1.70
2024-03-08T22:41:12.515Z,1.70
2024-03-08T22:44:34.541Z,1.70
2024-03-08T22:47:59.950Z,1.70
2024-03-08T22:51:22.215Z,1.60
2024-03-08T22:54:45.240Z,1.60
2024-03-08T22:58:06.902Z,1.60
2024-03-08T23:01:29.428Z,1.60
2024-03-08T23:04:51.228Z,1.60
2024-03-08T23:08:12.942Z,1.60
2024-03-08T23:11:35.991Z,1.50
2024-03-08T23:14:57.628Z,1.40
2024-03-08T23:18:19.259Z,1.30
2024-03-08T23:21:40.877Z,1.30
2024-03-08T23:25:02.524Z,1.20
2024-03-08T23:28:25.662Z,1.20
2024-03-08T23:31:47.369Z,1.20
2024-03-08T23:35:09.375Z,1.20
2024-03-08T23:38:31.050Z,1.30
2024-03-08T23:41:52.670Z,1.30
2024-03-08T23:45:16.507Z,1.30
2024-03-08T23:48:38.215Z,1.30
2024-03-08T23:52:00.522Z,1.40
2024-03-08T23:55:23.294Z,1.50
2024-03-08T23:58:44.983Z,1.50
